createdAt,value
2023-02-19T00:01:54.984Z,100506.75
2023-02-19T00:04:24.711Z,100502.44
2023-02-19T00:06:52.942Z,100515.56
2023-02-19T00:09:21.673Z,100510.41
2023-02-19T00:11:50.124Z,100505.16
2023-02-19T00:14:20.405Z,100499.91
2023-02-19T00:16:49.037Z,100502.59
2023-02-19T00:19:19.135Z,100498.25
2023-02-19T00:21:49.276Z,100503.56
2023-02-19T00:24:17.462Z,100514.97
2023-02-19T00:26:46.758Z,100508.81
2023-02-19T00:29:17.268Z,100508.81
2023-02-19T00:31:46.288Z,100515.84
2023-02-19T00:34:15.335Z,100534.28
2023-02-19T00:36:44.353Z,100525.50
2023-02-19T00:39:16.505Z,100536.06
2023-02-19T00:41:45.665Z,100531.66
2023-02-19T00:44:14.900Z,100542.22
2023-02-19T00:46:46.032Z,100542.16
2023-02-19T00:49:18.356Z,100547.53
2023-02-19T00:51:47.017Z,100542.47
2023-02-19T00:54:17.288Z,100545.16
2023-02-19T00:56:45.887Z,100558.34
2023-02-19T00:59:14.022Z,100560.22
2023-02-19T01:01:42.630Z,100567.22
2023-02-19T01:04:12.619Z,100581.19
2023-02-19T01:06:41.313Z,100583.03
2023-02-19T01:09:09.435Z,100587.47
2023-02-19T01:11:38.866Z,100586.63
2023-02-19T01:14:07.092Z,100584.03
2023-02-19T01:16:35.777Z,100582.28
2023-02-19T01:19:04.223Z,100581.50
2023-02-19T01:21:32.651Z,100584.13
2023-02-19T01:24:00.832Z,100579.00
2023-02-19T01:26:32.094Z,100591.38
2023-02-19T01:29:02.520Z,100595.03
2023-02-19T01:31:31.969Z,100592.44
2023-02-19T01:34:03.835Z,100586.38
2023-02-19T01:36:34.867Z,100578.44
2023-02-19T01:39:05.202Z,100579.22
2023-02-19T01:41:35.764Z,100577.47
2023-02-19T01:44:08.200Z,100577.59
2023-02-19T01:46:38.810Z,100586.44
2023-02-19T01:49:10.386Z,100589.91
2023-02-19T01:51:42.497Z,100599.66
2023-02-19T01:54:14.343Z,100599.66
2023-02-19T01:56:44.763Z,100596.25
2023-02-19T01:59:15.298Z,100611.13
2023-02-19T02:01:43.553Z,100613.75
2023-02-19T02:04:14.541Z,100612.00
2023-02-19T02:06:49.057Z,100621.59
2023-02-19T02:09:36.695Z,100617.34
2023-02-19T02:12:05.159Z,100626.06
2023-02-19T02:14:37.509Z,100624.31
2023-02-19T02:17:15.297Z,100622.59
2023-02-19T02:20:03.801Z,100638.25
2023-02-19T02:22:38.524Z,100637.44
2023-02-19T02:25:23.643Z,100630.44
2023-02-19T02:27:59.638Z,100629.59
2023-02-19T02:30:40.779Z,100636.50
2023-02-19T02:33:21.761Z,100631.31
2023-02-19T02:35:55.102Z,100632.22
2023-02-19T02:38:26.989Z,100633.16
2023-02-19T02:40:56.884Z,100642.78
2023-02-19T02:43:25.846Z,100625.38
2023-02-19T02:45:56.511Z,100628.13
2023-02-19T02:48:38.488Z,100639.50
2023-02-19T02:51:15.401Z,100635.06
2023-02-19T02:54:11.562Z,100654.16
2023-02-19T02:56:42.798Z,100657.69
2023-02-19T02:59:14.577Z,100656.00
2023-02-19T03:02:01.913Z,100663.84
2023-02-19T03:04:35.102Z,100660.41
2023-02-19T03:07:07.661Z,100666.63
2023-02-19T03:09:43.230Z,100664.00
2023-02-19T03:12:33.282Z,100675.38
2023-02-19T03:15:26.412Z,100682.34
2023-02-19T03:18:20.022Z,100691.03
2023-02-19T03:20:52.783Z,100690.94
2023-02-19T03:23:43.028Z,100688.16
2023-02-19T03:26:12.501Z,100689.78
2023-02-19T03:29:09.248Z,100685.34
2023-02-19T03:31:42.312Z,100688.84
2023-02-19T03:34:16.962Z,100680.84
2023-02-19T03:36:49.750Z,100692.06
2023-02-19T03:39:23.107Z,100698.97
2023-02-19T03:41:59.484Z,100696.34
2023-02-19T03:44:39.515Z,100705.94
2023-02-19T03:47:16.683Z,100688.44
2023-02-19T03:49:51.278Z,100694.50
2023-02-19T03:52:28.342Z,100697.09
2023-02-19T03:55:05.133Z,100690.13
2023-02-19T03:57:46.749Z,100700.69
2023-02-19T04:00:19.234Z,100705.94
2023-02-19T04:02:55.356Z,100718.19
2023-02-19T04:05:29.025Z,100720.06
2023-02-19T04:08:04.765Z,100718.41
2023-02-19T04:10:40.855Z,100725.47
2023-02-19T04:13:17.290Z,100732.50
2023-02-19T04:15:47.948Z,100739.47
2023-02-19T04:18:18.880Z,100741.16
2023-02-19T04:20:49.459Z,100748.97
2023-02-19T04:23:21.941Z,100749.81
2023-02-19T04:25:56.104Z,100739.38
2023-02-19T04:28:24.257Z,100753.41
2023-02-19T04:30:52.513Z,100760.28
2023-02-19T04:33:20.710Z,100762.00
2023-02-19T04:35:50.102Z,100753.28
2023-02-19T04:38:18.324Z,100751.56
2023-02-19T04:40:46.872Z,100755.91
2023-02-19T04:43:15.051Z,100762.06
2023-02-19T04:45:43.101Z,100762.16
2023-02-19T04:48:11.670Z,100773.66
2023-02-19T04:50:40.751Z,100778.09
2023-02-19T04:53:10.227Z,100783.47
2023-02-19T04:55:39.224Z,100780.88
2023-02-19T04:58:07.587Z,100774.75
2023-02-19T05:00:35.743Z,100777.47
2023-02-19T05:03:03.865Z,100783.63
2023-02-19T05:05:32.541Z,100789.69
2023-02-19T05:08:00.785Z,100802.72
2023-02-19T05:10:30.181Z,100804.38
2023-02-19T05:12:58.367Z,100811.34
2023-02-19T05:15:26.433Z,100810.53
2023-02-19T05:17:54.675Z,100812.31
2023-02-19T05:20:23.474Z,100817.59
2023-02-19T05:22:51.796Z,100815.00
2023-02-19T05:25:19.968Z,100813.25
2023-02-19T05:27:49.444Z,100815.94
2023-02-19T05:30:17.593Z,100829.97
2023-02-19T05:32:45.820Z,100828.19
2023-02-19T05:35:13.876Z,100839.63
2023-02-19T05:37:42.116Z,100841.47
2023-02-19T05:40:10.627Z,100838.03
2023-02-19T05:42:39.165Z,100832.84
2023-02-19T05:45:09.447Z,100838.03
2023-02-19T05:47:37.604Z,100837.97
2023-02-19T05:50:06.104Z,100843.19
2023-02-19T05:52:34.533Z,100839.72
2023-02-19T05:55:02.680Z,100856.31
2023-02-19T05:57:30.849Z,100853.72
2023-02-19T05:59:59.253Z,100867.66
2023-02-19T06:02:28.707Z,100867.69
2023-02-19T06:04:56.912Z,100863.31
2023-02-19T06:07:25.042Z,100877.28
2023-02-19T06:09:53.181Z,100864.16
2023-02-19T06:12:21.290Z,100861.56
2023-02-19T06:14:49.491Z,100850.31
2023-02-19T06:17:18.379Z,100848.59
2023-02-19T06:19:47.761Z,100872.25
2023-02-19T06:22:16.729Z,100878.34
2023-02-19T06:24:44.779Z,100881.03
2023-02-19T06:27:12.982Z,100875.00
2023-02-19T06:29:41.074Z,100876.78
2023-02-19T06:32:09.387Z,100885.50
2023-02-19T06:34:37.803Z,100883.78
2023-02-19T06:37:07.243Z,100888.16
2023-02-19T06:39:35.338Z,100893.38
2023-02-19T06:42:03.484Z,100911.72
2023-02-19T06:44:31.929Z,100923.13
2023-02-19T06:47:00.125Z,100931.84
2023-02-19T06:49:28.348Z,100941.44
2023-02-19T06:51:56.453Z,100949.28
2023-02-19T06:54:26.493Z,100958.84
2023-02-19T06:56:54.713Z,100958.84
2023-02-19T06:59:22.836Z,100960.59
2023-02-19T07:01:50.979Z,100955.38
2023-02-19T07:04:19.249Z,100943.22
2023-02-19T07:06:47.420Z,100940.59
2023-02-19T07:09:15.519Z,100945.88
2023-02-19T07:11:44.973Z,100940.72
2023-02-19T07:14:17.002Z,100952.94
2023-02-19T07:16:47.429Z,100951.16
2023-02-19T07:19:16.687Z,100960.75
2023-02-19T07:21:44.865Z,100964.19
2023-02-19T07:24:12.971Z,100965.97
2023-02-19T07:26:41.182Z,100973.81
2023-02-19T07:29:11.806Z,100981.69
2023-02-19T07:31:40.061Z,100984.28
2023-02-19T07:34:08.590Z,100994.75
2023-02-19T07:36:36.733Z,100988.66
2023-02-19T07:39:04.957Z,100982.59
2023-02-19T07:41:33.223Z,101006.09
2023-02-19T07:44:01.317Z,101025.28
2023-02-19T07:46:31.182Z,101025.25
2023-02-19T07:49:01.112Z,101014.81
2023-02-19T07:51:29.271Z,101022.63
2023-02-19T07:53:57.371Z,101035.69
2023-02-19T07:56:25.500Z,101029.56
2023-02-19T07:58:53.716Z,101032.16
2023-02-19T08:01:45.180Z,101026.03
2023-02-19T08:04:15.337Z,101032.13
2023-02-19T08:06:43.916Z,101035.59
2023-02-19T08:09:12.649Z,101044.34
2023-02-19T08:11:58.131Z,101052.19
2023-02-19T08:14:26.995Z,101052.19
2023-02-19T08:16:55.680Z,101043.47
2023-02-19T08:19:25.220Z,101040.00
2023-02-19T08:21:53.561Z,101039.06
2023-02-19T08:24:21.885Z,101036.44
2023-02-19T08:26:49.999Z,101035.56
2023-02-19T08:29:18.186Z,101030.31
2023-02-19T08:31:46.584Z,101027.66
2023-02-19T08:34:14.877Z,101037.28
2023-02-19T08:36:44.256Z,101031.16
2023-02-19T08:39:12.369Z,101044.22
2023-02-19T08:41:40.488Z,101045.09
2023-02-19T08:44:08.699Z,101059.88
2023-02-19T08:46:36.780Z,101063.25
2023-02-19T08:49:04.951Z,101057.06
2023-02-19T08:51:33.296Z,101063.00
2023-02-19T08:54:05.095Z,101062.84
2023-02-19T08:56:33.494Z,101066.19
2023-02-19T08:59:01.564Z,101065.25
2023-02-19T09:01:29.852Z,101069.56
2023-02-19T09:03:58.043Z,101058.16
2023-02-19T09:06:26.302Z,101057.16
2023-02-19T09:08:54.482Z,101060.63
2023-02-19T09:11:23.952Z,101062.31
2023-02-19T09:13:52.042Z,101063.13
2023-02-19T09:16:20.210Z,101070.97
2023-02-19T09:18:48.377Z,101070.97
2023-02-19T09:21:16.507Z,101082.25
2023-02-19T09:23:44.640Z,101079.50
2023-02-19T09:26:14.067Z,101089.03
2023-02-19T09:28:43.679Z,101100.41
2023-02-19T09:31:14.621Z,101122.22
2023-02-19T09:33:44.534Z,101126.53
2023-02-19T09:36:13.294Z,101131.69
2023-02-19T09:38:41.740Z,101122.91
2023-02-19T09:41:16.409Z,101109.00
2023-02-19T09:43:46.327Z,101105.56
2023-02-19T09:46:29.136Z,101116.09
2023-02-19T09:49:03.342Z,101110.00
2023-02-19T09:51:33.829Z,101112.63
2023-02-19T09:54:03.016Z,101118.50
2023-02-19T09:56:31.561Z,101110.38
2023-02-19T09:59:02.044Z,101115.25
2023-02-19T10:01:34.573Z,101103.56
2023-02-19T10:04:02.732Z,101107.88
2023-02-19T10:06:30.935Z,101097.31
2023-02-19T10:09:12.799Z,101101.81
2023-02-19T10:11:41.445Z,101116.84
2023-02-19T10:14:18.554Z,101119.69
2023-02-19T10:16:50.283Z,101126.72
2023-02-19T10:19:18.896Z,101114.38
2023-02-19T10:21:47.454Z,101121.06
2023-02-19T10:24:21.672Z,101114.56
2023-02-19T10:26:51.790Z,101118.88
2023-02-19T10:29:22.040Z,101123.28
2023-02-19T10:31:52.249Z,101123.44
2023-02-19T10:34:22.624Z,101124.31
2023-02-19T10:36:52.252Z,101115.53
2023-02-19T10:39:42.306Z,101122.53
2023-02-19T10:42:29.351Z,101137.28
2023-02-19T10:45:02.918Z,101144.00
2023-02-19T10:47:33.532Z,101140.34
2023-02-19T10:50:04.477Z,101129.84
2023-02-19T10:52:36.752Z,101118.31
2023-02-19T10:55:28.471Z,101129.75
2023-02-19T10:57:56.747Z,101140.28
2023-02-19T11:00:30.617Z,101141.22
2023-02-19T11:03:21.390Z,101139.38
2023-02-19T11:05:59.450Z,101136.72
2023-02-19T11:08:27.675Z,101126.91
2023-02-19T11:10:55.979Z,101123.84
2023-02-19T11:13:32.370Z,101118.25
2023-02-19T11:16:02.307Z,101111.13
2023-02-19T11:18:32.932Z,101116.38
2023-02-19T11:21:03.557Z,101121.78
2023-02-19T11:23:33.360Z,101114.84
2023-02-19T11:26:04.722Z,101113.16
2023-02-19T11:28:34.918Z,101117.53
2023-02-19T11:31:23.498Z,101116.63
2023-02-19T11:33:57.933Z,101110.53
2023-02-19T11:36:30.691Z,101118.47
2023-02-19T11:39:00.764Z,101112.34
2023-02-19T11:41:48.759Z,101101.03
2023-02-19T11:44:31.317Z,101089.72
2023-02-19T11:47:18.447Z,101089.53
2023-02-19T11:49:55.713Z,101094.66
2023-02-19T11:52:36.723Z,101084.81
2023-02-19T11:55:15.065Z,101081.09
2023-02-19T11:57:47.776Z,101075.75
2023-02-19T12:00:24.874Z,101059.06
2023-02-19T12:03:06.824Z,101057.28
2023-02-19T12:05:48.505Z,101061.63
2023-02-19T12:08:46.626Z,101056.41
2023-02-19T12:11:34.432Z,101064.28
2023-02-19T12:14:25.007Z,101055.75
2023-02-19T12:17:01.980Z,101035.06
2023-02-19T12:19:45.536Z,101044.84
2023-02-19T12:22:27.741Z,101046.56
2023-02-19T12:25:19.893Z,101050.88
2023-02-19T12:27:59.343Z,101042.97
2023-02-19T12:30:46.019Z,101040.94
2023-02-19T12:33:34.915Z,101028.59
2023-02-19T12:36:16.680Z,101026.91
2023-02-19T12:38:47.802Z,101034.00
2023-02-19T12:41:28.610Z,101040.03
2023-02-19T12:44:02.622Z,101031.28
2023-02-19T12:46:34.533Z,101035.59
2023-02-19T12:49:10.860Z,101034.56
2023-02-19T12:51:46.392Z,101029.34
2023-02-19T12:54:21.764Z,101041.38
2023-02-19T12:56:54.805Z,101040.16
2023-02-19T12:59:27.606Z,101025.69
2023-02-19T13:02:02.016Z,101017.56
2023-02-19T13:04:41.128Z,101015.03
2023-02-19T13:07:15.657Z,101016.94
2023-02-19T13:09:49.479Z,101013.72
2023-02-19T13:12:23.052Z,101005.22
2023-02-19T13:14:58.041Z,101012.28
2023-02-19T13:17:29.919Z,101013.63
2023-02-19T13:20:02.871Z,101006.16
2023-02-19T13:22:58.030Z,101003.66
2023-02-19T13:25:39.372Z,100995.75
2023-02-19T13:28:21.479Z,100995.78
2023-02-19T13:31:14.638Z,100980.47
2023-02-19T13:33:57.598Z,100994.06
2023-02-19T13:36:28.248Z,100994.78
2023-02-19T13:39:00.581Z,100974.69
2023-02-19T13:41:32.386Z,100984.72
2023-02-19T13:44:04.583Z,100979.63
2023-02-19T13:46:42.980Z,100980.00
2023-02-19T13:49:43.517Z,100976.97
2023-02-19T13:52:38.386Z,100976.44
2023-02-19T13:55:44.179Z,100978.09
2023-02-19T13:58:40.248Z,100965.88
2023-02-19T14:01:09.660Z,100964.91
2023-02-19T14:04:08.031Z,100972.81
2023-02-19T14:07:18.018Z,100967.53
2023-02-19T14:09:47.521Z,100958.81
2023-02-19T14:12:25.017Z,100958.06
2023-02-19T14:14:55.334Z,100958.94
2023-02-19T14:17:28.366Z,100951.00
2023-02-19T14:19:59.451Z,100952.66
2023-02-19T14:23:04.796Z,100956.06
2023-02-19T14:25:39.629Z,100939.34
2023-02-19T14:28:18.182Z,100947.16
2023-02-19T14:30:51.721Z,100938.41
2023-02-19T14:33:22.936Z,100941.06
2023-02-19T14:35:55.931Z,100934.31
2023-02-19T14:38:28.823Z,100924.06
2023-02-19T14:41:00.358Z,100911.91
2023-02-19T14:43:30.758Z,100911.06
2023-02-19T14:46:05.523Z,100908.38
2023-02-19T14:48:39.001Z,100910.94
2023-02-19T14:51:12.817Z,100911.91
2023-02-19T14:53:45.314Z,100905.00
2023-02-19T14:56:21.578Z,100900.88
2023-02-19T14:59:07.945Z,100910.56
2023-02-19T15:01:37.443Z,100908.72
2023-02-19T15:04:05.903Z,100915.72
2023-02-19T15:06:36.432Z,100917.56
2023-02-19T15:09:07.458Z,100903.56
2023-02-19T15:11:36.783Z,100885.16
2023-02-19T15:14:08.383Z,100892.41
2023-02-19T15:16:38.133Z,100892.56
2023-02-19T15:19:09.150Z,100881.25
2023-02-19T15:21:45.098Z,100879.53
2023-02-19T15:24:16.423Z,100876.06
2023-02-19T15:26:50.453Z,100874.50
2023-02-19T15:29:21.078Z,100871.13
2023-02-19T15:31:52.711Z,100858.88
2023-02-19T15:34:23.204Z,100865.84
2023-02-19T15:36:53.364Z,100858.00
2023-02-19T15:39:24.188Z,100873.97
2023-02-19T15:41:58.470Z,100875.78
2023-02-19T15:44:38.127Z,100877.59
2023-02-19T15:47:15.149Z,100866.34
2023-02-19T15:49:51.286Z,100878.75
2023-02-19T15:52:28.792Z,100881.53
2023-02-19T15:55:02.363Z,100889.47
2023-02-19T15:57:36.868Z,100875.56
2023-02-19T16:00:14.521Z,100874.00
2023-02-19T16:02:44.306Z,100875.09
2023-02-19T16:05:16.201Z,100878.78
2023-02-19T16:07:46.209Z,100870.19
2023-02-19T16:10:24.234Z,100860.66
2023-02-19T16:13:03.017Z,100873.09
2023-02-19T16:15:35.319Z,100864.31
2023-02-19T16:18:05.873Z,100867.00
2023-02-19T16:20:36.445Z,100871.41
2023-02-19T16:23:13.618Z,100878.59
2023-02-19T16:25:46.129Z,100879.41
2023-02-19T16:28:21.631Z,100880.31
2023-02-19T16:30:57.318Z,100880.38
2023-02-19T16:33:48.448Z,100880.63
2023-02-19T16:36:21.936Z,100883.50
2023-02-19T16:39:22.196Z,100884.47
2023-02-19T16:42:15.964Z,100879.34
2023-02-19T16:44:45.317Z,100888.22
2023-02-19T16:47:31.625Z,100886.56
2023-02-19T16:50:04.087Z,100891.16
2023-02-19T16:52:32.386Z,100890.50
2023-02-19T16:55:00.594Z,100883.78
2023-02-19T16:57:29.526Z,100888.31
2023-02-19T16:59:57.576Z,100892.84
2023-02-19T17:02:26.588Z,100889.44
2023-02-19T17:04:55.916Z,100893.91
2023-02-19T17:07:27.499Z,100878.41
2023-02-19T17:09:55.691Z,100889.91
2023-02-19T17:12:24.298Z,100892.66
2023-02-19T17:14:53.904Z,100894.63
2023-02-19T17:17:22.088Z,100892.22
2023-02-19T17:19:50.297Z,100895.00
2023-02-19T17:22:18.443Z,100880.38
2023-02-19T17:24:50.617Z,100887.53
2023-02-19T17:27:19.226Z,100893.03
2023-02-19T17:29:47.297Z,100878.38
2023-02-19T17:32:15.702Z,100879.47
2023-02-19T17:34:43.915Z,100877.00
2023-02-19T17:37:12.047Z,100887.66
2023-02-19T17:39:40.128Z,100878.16
2023-02-19T17:42:09.775Z,100874.78
2023-02-19T17:44:37.853Z,100874.81
2023-02-19T17:47:06.633Z,100880.19
2023-02-19T17:49:35.248Z,100885.56
2023-02-19T17:52:04.620Z,100891.78
2023-02-19T17:54:32.745Z,100887.56
2023-02-19T17:57:01.048Z,100885.94
2023-02-19T17:59:30.464Z,100879.06
2023-02-19T18:01:58.626Z,100886.13
2023-02-19T18:04:26.718Z,100884.47
2023-02-19T18:06:55.894Z,100874.97
2023-02-19T18:09:24.155Z,100871.59
2023-02-19T18:11:52.350Z,100861.19
2023-02-19T18:14:20.515Z,100880.47
2023-02-19T18:16:51.033Z,100891.06
2023-02-19T18:19:19.546Z,100879.84
2023-02-19T18:21:47.707Z,100872.97
2023-02-19T18:24:16.334Z,100871.28
2023-02-19T18:26:44.788Z,100874.88
2023-02-19T18:29:13.239Z,100873.25
2023-02-19T18:31:41.425Z,100882.03
2023-02-19T18:34:17.574Z,100880.41
2023-02-19T18:36:46.585Z,100898.75
2023-02-19T18:39:14.854Z,100899.75
2023-02-19T18:41:47.252Z,100898.09
2023-02-19T18:44:18.630Z,100903.34
2023-02-19T18:46:46.938Z,100906.00
2023-02-19T18:49:16.527Z,100899.03
2023-02-19T18:51:44.777Z,100896.41
2023-02-19T18:54:12.958Z,100897.25
2023-02-19T18:56:43.411Z,100899.84
2023-02-19T18:59:11.894Z,100905.06
2023-02-19T19:01:40.141Z,100897.19
2023-02-19T19:04:08.478Z,100908.50
2023-02-19T19:06:37.975Z,100911.97
2023-02-19T19:09:07.099Z,100912.84
2023-02-19T19:11:35.440Z,100906.81
2023-02-19T19:14:03.777Z,100887.69
2023-02-19T19:16:31.930Z,100896.44
2023-02-19T19:19:00.030Z,100902.53
2023-02-19T19:21:28.199Z,100902.56
2023-02-19T19:23:57.670Z,100898.19
2023-02-19T19:26:26.181Z,100889.53
2023-02-19T19:28:54.442Z,100890.41
2023-02-19T19:31:24.842Z,100888.75
2023-02-19T19:33:53.696Z,100884.38
2023-02-19T19:36:23.703Z,100883.53
2023-02-19T19:38:51.883Z,100888.72
2023-02-19T19:41:22.752Z,100880.88
2023-02-19T19:43:50.941Z,100887.88
2023-02-19T19:46:20.665Z,100892.25
2023-02-19T19:48:50.031Z,100892.28
2023-02-19T19:51:18.849Z,100881.88
2023-02-19T19:53:48.525Z,100874.94
2023-02-19T19:56:17.058Z,100877.63
2023-02-19T19:58:50.526Z,100881.97
2023-02-19T20:01:22.031Z,100878.53
2023-02-19T20:03:53.689Z,100881.19
2023-02-19T20:06:32.207Z,100875.13
2023-02-19T20:09:02.434Z,100885.56
2023-02-19T20:11:34.639Z,100875.13
2023-02-19T20:14:07.083Z,100879.47
2023-02-19T20:16:36.040Z,100876.88
2023-02-19T20:19:04.831Z,100877.75
2023-02-19T20:21:33.105Z,100872.53
2023-02-19T20:24:01.600Z,100889.06
2023-02-19T20:26:31.882Z,100883.81
2023-02-19T20:29:00.045Z,100887.28
2023-02-19T20:31:29.965Z,100888.16
2023-02-19T20:33:58.110Z,100886.41
2023-02-19T20:36:28.504Z,100886.44
2023-02-19T20:38:57.174Z,100891.66
2023-02-19T20:41:25.721Z,100902.06
2023-02-19T20:43:53.915Z,100883.78
2023-02-19T20:46:22.055Z,100890.75
2023-02-19T20:48:52.080Z,100889.00
2023-02-19T20:51:20.250Z,100882.94
2023-02-19T20:53:48.663Z,100884.66
2023-02-19T20:56:16.996Z,100882.94
2023-02-19T20:58:45.094Z,100886.41
2023-02-19T21:01:13.344Z,100887.25
2023-02-19T21:03:41.455Z,100885.53
2023-02-19T21:06:11.391Z,100889.88
2023-02-19T21:08:39.716Z,100883.81
2023-02-19T21:11:07.965Z,100884.63
2023-02-19T21:13:36.418Z,100892.44
2023-02-19T21:16:04.767Z,100895.06
2023-02-19T21:18:32.932Z,100884.59
2023-02-19T21:21:01.245Z,100882.81
2023-02-19T21:23:30.731Z,100888.00
2023-02-19T21:25:58.902Z,100887.13
2023-02-19T21:28:26.971Z,100891.47
2023-02-19T21:30:55.407Z,100890.63
2023-02-19T21:33:23.530Z,100888.03
2023-02-19T21:35:51.586Z,100884.56
2023-02-19T21:38:19.637Z,100893.28
2023-02-19T21:40:49.236Z,100898.50
2023-02-19T21:43:17.387Z,100894.16
2023-02-19T21:45:45.561Z,100892.44
2023-02-19T21:48:13.713Z,100888.09
2023-02-19T21:50:45.453Z,100888.09
2023-02-19T21:53:13.678Z,100893.34
2023-02-19T21:55:56.616Z,100891.59
2023-02-19T21:58:28.105Z,100883.78
2023-02-19T22:00:58.134Z,100888.13
2023-02-19T22:03:27.059Z,100878.56
2023-02-19T22:05:55.725Z,100874.22
2023-02-19T22:08:23.949Z,100874.25
2023-02-19T22:10:52.054Z,100862.97
2023-02-19T22:13:20.281Z,100862.06
2023-02-19T22:15:49.825Z,100875.97
2023-02-19T22:18:17.921Z,100870.75
2023-02-19T22:20:46.208Z,100870.75
2023-02-19T22:23:14.328Z,100868.13
2023-02-19T22:25:42.604Z,100865.53
2023-02-19T22:28:10.751Z,100861.19
2023-02-19T22:30:38.894Z,100865.50
2023-02-19T22:33:08.361Z,100861.13
2023-02-19T22:35:36.457Z,100858.50
2023-02-19T22:38:04.600Z,100862.81
2023-02-19T22:40:32.660Z,100862.81
2023-02-19T22:43:01.621Z,100865.41
2023-02-19T22:45:29.789Z,100865.44
2023-02-19T22:47:58.110Z,100869.81
2023-02-19T22:50:27.559Z,100869.84
2023-02-19T22:52:55.784Z,100867.25
2023-02-19T22:55:23.880Z,100869.84
2023-02-19T22:57:52.051Z,100868.09
2023-02-19T23:00:22.124Z,100862.88
2023-02-19T23:02:50.804Z,100863.78
2023-02-19T23:05:19.034Z,100863.78
2023-02-19T23:07:48.556Z,100854.25
2023-02-19T23:10:16.901Z,100848.19
2023-02-19T23:12:45.033Z,100845.59
2023-02-19T23:15:13.226Z,100849.03
2023-02-19T23:17:41.358Z,100836.84
2023-02-19T23:20:10.170Z,100830.72
2023-02-19T23:22:38.466Z,100837.66
2023-02-19T23:25:08.248Z,100835.94
2023-02-19T23:27:36.394Z,100825.47
2023-02-19T23:30:04.840Z,100828.13
2023-02-19T23:32:33.078Z,100824.66
2023-02-19T23:35:01.208Z,100832.50
2023-02-19T23:37:29.421Z,100820.38
2023-02-19T23:39:57.494Z,100816.03
2023-02-19T23:42:26.956Z,100818.66
2023-02-19T23:44:55.012Z,100810.81
2023-02-19T23:47:23.201Z,100802.94
2023-02-19T23:49:51.310Z,100806.41
2023-02-19T23:52:19.511Z,100806.41
2023-02-19T23:54:47.601Z,100809.06
2023-02-19T23:57:15.880Z,100802.91
2023-02-19T23:59:47.289Z,100804.63
